createdAt,value
2018-10-01T00:01:13.802Z,97592.70
2018-10-01T00:03:42.377Z,97593.34
2018-10-01T00:06:11.016Z,97595.11
2018-10-01T00:08:39.658Z,97592.37
2018-10-01T00:11:08.266Z,97594.80
2018-10-01T00:13:36.861Z,97601.17
2018-10-01T00:16:05.877Z,97595.98
2018-10-01T00:18:34.683Z,97590.75
2018-10-01T00:21:08.513Z,97587.78
2018-10-01T00:29:33.954Z,97581.11
2018-10-01T00:32:02.541Z,97585.31
2018-10-01T00:34:31.105Z,97579.05
2018-10-01T00:36:59.708Z,97582.95
2018-10-01T00:39:28.241Z,97580.40
2018-10-01T00:41:56.857Z,97576.13
2018-10-01T00:44:25.442Z,97566.16
2018-10-01T00:46:54.043Z,97560.18
2018-10-01T00:49:22.581Z,97566.64
2018-10-01T00:51:52.026Z,97566.70
2018-10-01T00:54:20.693Z,97569.48
2018-10-01T00:56:49.290Z,97571.96
2018-10-01T00:59:25.146Z,97558.31
2018-10-01T01:01:53.733Z,97554.55
2018-10-01T01:04:22.274Z,97556.72
2018-10-01T01:06:50.843Z,97554.27
2018-10-01T01:09:45.390Z,97554.53
2018-10-01T01:12:14.482Z,97554.89
2018-10-01T01:14:43.041Z,97549.36
2018-10-01T01:17:11.600Z,97537.48
2018-10-01T01:19:40.148Z,97539.27
2018-10-01T01:22:08.757Z,97536.89
2018-10-01T01:24:37.291Z,97535.80
2018-10-01T01:27:05.870Z,97532.85
2018-10-01T01:29:34.441Z,97534.44
2018-10-01T01:32:03.001Z,97531.11
2018-10-01T01:34:31.550Z,97523.13
2018-10-01T01:37:00.155Z,97512.50
2018-10-01T01:39:28.723Z,97514.19
2018-10-01T01:41:57.360Z,97508.73
2018-10-01T01:44:25.938Z,97506.89
2018-10-01T01:46:54.455Z,97514.27
2018-10-01T01:49:23.053Z,97514.91
2018-10-01T01:51:51.622Z,97526.05
2018-10-01T01:54:22.797Z,97525.27
2018-10-01T01:56:51.655Z,97525.04
2018-10-01T01:59:20.229Z,97523.40
2018-10-01T02:01:48.775Z,97526.89
2018-10-01T02:04:17.338Z,97516.81
2018-10-01T02:06:45.872Z,97521.45
2018-10-01T02:09:14.449Z,97507.38
2018-10-01T02:11:43.004Z,97504.50
2018-10-01T02:14:11.564Z,97516.00
2018-10-01T02:16:40.107Z,97504.78
2018-10-01T02:19:08.696Z,97507.16
2018-10-01T02:21:37.218Z,97506.09
2018-10-01T02:24:05.802Z,97502.92
2018-10-01T02:26:34.340Z,97500.52
2018-10-01T02:29:02.913Z,97492.55
2018-10-01T02:31:31.441Z,97491.77
2018-10-01T02:34:00.029Z,97495.88
2018-10-01T02:36:28.566Z,97498.68
2018-10-01T02:38:57.150Z,97501.31
2018-10-01T02:41:25.701Z,97501.45
2018-10-01T02:43:54.390Z,97496.48
2018-10-01T02:46:22.930Z,97495.92
2018-10-01T02:48:51.485Z,97499.96
2018-10-01T02:51:20.041Z,97503.72
2018-10-01T02:53:53.865Z,97497.42
2018-10-01T02:56:22.450Z,97490.44
2018-10-01T02:58:51.017Z,97497.84
2018-10-01T03:01:19.564Z,97496.83
2018-10-01T03:03:48.159Z,97485.02
2018-10-01T03:06:16.761Z,97484.04
2018-10-01T03:08:45.369Z,97485.45
2018-10-01T03:11:13.966Z,97487.64
2018-10-01T03:13:42.553Z,97478.64
2018-10-01T03:16:11.110Z,97478.41
2018-10-01T03:18:39.700Z,97473.24
2018-10-01T03:21:08.295Z,97472.34
2018-10-01T03:23:48.260Z,97465.97
2018-10-01T03:26:17.064Z,97463.34
2018-10-01T03:28:45.646Z,97461.96
2018-10-01T03:31:14.206Z,97459.21
2018-10-01T03:33:42.784Z,97459.36
2018-10-01T03:36:11.329Z,97463.89
2018-10-01T03:38:39.856Z,97466.65
2018-10-01T03:41:17.313Z,97459.91
2018-10-01T03:43:47.317Z,97464.28
2018-10-01T03:46:16.001Z,97459.41
2018-10-01T03:48:44.668Z,97468.72
2018-10-01T03:51:13.272Z,97466.00
2018-10-01T03:53:41.837Z,97471.25
2018-10-01T03:56:10.640Z,97475.38
2018-10-01T03:58:39.301Z,97473.74
2018-10-01T04:01:07.893Z,97472.24
2018-10-01T04:03:36.468Z,97467.56
2018-10-01T04:06:05.084Z,97465.76
2018-10-01T04:08:33.702Z,97464.26
2018-10-01T04:11:10.046Z,97456.41
2018-10-01T04:13:38.719Z,97465.45
2018-10-01T04:16:07.547Z,97477.91
2018-10-01T04:18:36.109Z,97482.05
2018-10-01T04:21:04.702Z,97480.47
2018-10-01T04:23:33.364Z,97481.35
2018-10-01T04:26:01.948Z,97481.22
2018-10-01T04:28:30.585Z,97476.41
2018-10-01T04:30:59.204Z,97482.14
2018-10-01T04:33:27.785Z,97479.07
2018-10-01T04:35:56.377Z,97481.92
2018-10-01T04:38:24.965Z,97485.40
2018-10-01T04:41:13.956Z,97473.66
2018-10-01T04:43:52.703Z,97478.75
2018-10-01T04:46:21.542Z,97481.62
2018-10-01T04:48:50.113Z,97486.30
2018-10-01T04:51:18.699Z,97490.53
2018-10-01T04:53:51.195Z,97481.41
2018-10-01T04:56:20.043Z,97491.08
2018-10-01T04:58:48.614Z,97495.03
2018-10-01T05:01:17.210Z,97504.97
2018-10-01T05:03:45.767Z,97517.73
2018-10-01T05:06:14.439Z,97523.63
2018-10-01T05:08:42.937Z,97528.66
2018-10-01T05:11:11.525Z,97532.39
2018-10-01T05:13:40.260Z,97521.65
2018-10-01T05:16:08.851Z,97514.73
2018-10-01T05:18:37.513Z,97516.90
2018-10-01T05:21:06.246Z,97519.78
2018-10-01T05:23:35.111Z,97517.33
2018-10-01T05:26:03.736Z,97522.20
2018-10-01T05:28:32.322Z,97528.52
2018-10-01T05:31:00.941Z,97533.28
2018-10-01T05:33:29.508Z,97533.11
2018-10-01T05:35:58.124Z,97528.42
2018-10-01T05:38:26.688Z,97527.34
2018-10-01T05:40:55.257Z,97528.23
2018-10-01T05:43:23.841Z,97528.23
2018-10-01T05:45:52.473Z,97531.17
2018-10-01T05:48:21.078Z,97534.14
2018-10-01T05:50:50.874Z,97542.27
2018-10-01T05:53:19.496Z,97539.66
2018-10-01T05:55:48.117Z,97540.56
2018-10-01T05:58:16.733Z,97547.37
2018-10-01T06:00:45.295Z,97542.05
2018-10-01T06:03:21.696Z,97544.33
2018-10-01T06:05:50.471Z,97549.48
2018-10-01T06:08:19.084Z,97555.79
2018-10-01T06:10:50.305Z,97563.49
2018-10-01T06:13:18.896Z,97561.66
2018-10-01T06:15:47.513Z,97558.56
2018-10-01T06:18:16.385Z,97571.05
2018-10-01T06:20:48.404Z,97564.27
2018-10-01T06:23:17.304Z,97570.73
2018-10-01T06:25:45.856Z,97575.42
2018-10-01T06:28:16.341Z,97577.97
2018-10-01T06:30:48.092Z,97569.75
2018-10-01T06:33:21.693Z,97579.34
2018-10-01T06:35:51.074Z,97581.69
2018-10-01T06:38:22.134Z,97586.61
2018-10-01T06:40:55.020Z,97581.92
2018-10-01T06:43:28.416Z,97589.87
2018-10-01T06:46:00.575Z,97588.73
2018-10-01T06:48:33.977Z,97587.80
2018-10-01T06:51:07.232Z,97595.42
2018-10-01T06:53:38.798Z,97587.55
2018-10-01T06:56:07.793Z,97600.79
2018-10-01T06:58:42.681Z,97598.75
2018-10-01T07:01:11.321Z,97602.13
2018-10-01T07:03:39.892Z,97598.94
2018-10-01T07:06:08.476Z,97600.01
2018-10-01T07:08:37.104Z,97594.66
2018-10-01T07:11:05.763Z,97599.78
2018-10-01T07:13:40.729Z,97603.14
2018-10-01T07:16:24.625Z,97597.56
2018-10-01T07:18:55.249Z,97596.75
2018-10-01T07:21:30.554Z,97598.26
2018-10-01T07:24:00.901Z,97600.95
2018-10-01T07:26:31.052Z,97599.87
2018-10-01T07:29:00.220Z,97602.42
2018-10-01T07:31:28.858Z,97598.64
2018-10-01T07:33:57.696Z,97603.48
2018-10-01T07:36:26.274Z,97605.06
2018-10-01T07:38:55.076Z,97605.60
2018-10-01T07:41:23.685Z,97613.32
2018-10-01T07:43:52.289Z,97618.62
2018-10-01T07:46:26.666Z,97614.07
2018-10-01T07:48:55.293Z,97625.20
2018-10-01T07:51:23.879Z,97630.68
2018-10-01T07:53:52.511Z,97618.93
2018-10-01T07:56:21.112Z,97624.74
2018-10-01T07:58:49.733Z,97633.25
2018-10-01T08:01:18.322Z,97625.63
2018-10-01T08:03:46.949Z,97627.34
2018-10-01T08:06:15.565Z,97632.22
2018-10-01T08:08:44.295Z,97631.47
2018-10-01T08:11:12.841Z,97643.56
2018-10-01T08:13:41.458Z,97641.20
2018-10-01T08:16:10.030Z,97638.63
2018-10-01T08:18:38.674Z,97640.91
2018-10-01T08:21:07.638Z,97645.91
2018-10-01T08:23:36.300Z,97637.92
2018-10-01T08:26:04.895Z,97640.31
2018-10-01T08:28:33.517Z,97642.77
2018-10-01T08:31:02.120Z,97648.93
2018-10-01T08:33:30.753Z,97643.28
2018-10-01T08:35:59.360Z,97641.20
2018-10-01T08:38:28.018Z,97644.51
2018-10-01T08:40:56.665Z,97656.96
2018-10-01T08:43:25.296Z,97649.77
2018-10-01T08:45:53.871Z,97652.55
2018-10-01T08:48:23.185Z,97647.75
2018-10-01T08:50:58.187Z,97647.27
2018-10-01T08:53:31.929Z,97647.25
2018-10-01T08:56:00.632Z,97651.78
2018-10-01T08:58:29.241Z,97651.38
2018-10-01T09:00:57.835Z,97656.10
2018-10-01T09:03:26.515Z,97655.61
2018-10-01T09:05:55.117Z,97659.15
2018-10-01T09:08:23.800Z,97675.56
2018-10-01T09:10:52.394Z,97666.99
2018-10-01T09:13:28.772Z,97667.60
2018-10-01T09:15:57.786Z,97668.89
2018-10-01T09:18:26.395Z,97673.11
2018-10-01T09:20:55.028Z,97665.59
2018-10-01T09:23:23.724Z,97683.75
2018-10-01T09:25:52.320Z,97676.33
2018-10-01T09:28:20.900Z,97672.31
2018-10-01T09:30:49.572Z,97671.50
2018-10-01T09:33:18.180Z,97676.34
2018-10-01T09:35:46.813Z,97677.37
2018-10-01T09:38:15.468Z,97681.25
2018-10-01T09:40:44.060Z,97682.41
2018-10-01T09:43:19.301Z,97675.55
2018-10-01T09:45:49.021Z,97672.77
2018-10-01T09:48:17.660Z,97678.08
2018-10-01T09:50:46.269Z,97678.66
2018-10-01T09:53:15.243Z,97684.84
2018-10-01T09:55:43.894Z,97679.27
2018-10-01T09:58:13.615Z,97682.91
2018-10-01T10:00:47.326Z,97679.94
2018-10-01T10:03:15.973Z,97688.73
2018-10-01T10:05:44.625Z,97685.81
2018-10-01T10:08:13.292Z,97690.66
2018-10-01T10:10:41.905Z,97688.02
2018-10-01T10:13:10.472Z,97685.34
2018-10-01T10:15:39.106Z,97683.20
2018-10-01T10:18:07.742Z,97676.94
2018-10-01T10:20:36.412Z,97678.23
2018-10-01T10:23:04.994Z,97682.28
2018-10-01T10:25:33.629Z,97676.48
2018-10-01T10:28:21.027Z,97682.17
2018-10-01T10:30:50.195Z,97679.19
2018-10-01T10:33:18.764Z,97684.95
2018-10-01T10:35:56.613Z,97689.23
2018-10-01T10:38:25.376Z,97694.97
2018-10-01T10:40:53.982Z,97696.38
2018-10-01T10:43:22.549Z,97695.42
2018-10-01T10:45:51.192Z,97689.52
2018-10-01T10:48:36.271Z,97687.67
2018-10-01T10:51:09.869Z,97688.78
2018-10-01T10:53:38.465Z,97690.92
2018-10-01T10:56:07.362Z,97689.42
2018-10-01T10:58:35.908Z,97693.16
2018-10-01T11:01:04.556Z,97694.61
2018-10-01T11:03:33.174Z,97684.36
2018-10-01T11:06:02.040Z,97706.70
2018-10-01T11:08:30.652Z,97696.70
2018-10-01T11:10:59.856Z,97700.87
2018-10-01T11:13:28.450Z,97700.58
2018-10-01T11:15:57.090Z,97703.58
2018-10-01T11:18:25.718Z,97697.32
2018-10-01T11:20:54.397Z,97703.36
2018-10-01T11:23:22.993Z,97705.46
2018-10-01T11:25:55.427Z,97695.27
2018-10-01T11:28:24.113Z,97708.33
2018-10-01T11:30:52.753Z,97704.31
2018-10-01T11:33:21.716Z,97696.81
2018-10-01T11:35:50.327Z,97699.68
2018-10-01T11:38:18.952Z,97702.00
2018-10-01T11:40:47.602Z,97693.06
2018-10-01T11:43:16.324Z,97688.16
2018-10-01T11:45:45.036Z,97698.23
2018-10-01T11:48:13.603Z,97703.63
2018-10-01T11:50:42.305Z,97704.63
2018-10-01T11:53:10.993Z,97707.05
2018-10-01T11:55:39.606Z,97696.41
2018-10-01T11:58:08.288Z,97704.53
2018-10-01T12:00:37.229Z,97692.19
2018-10-01T12:03:11.046Z,97702.74
2018-10-01T12:08:17.852Z,97693.48
2018-10-01T12:10:52.640Z,97696.38
2018-10-01T12:13:23.530Z,97696.72
2018-10-01T12:15:52.336Z,97697.64
2018-10-01T12:18:21.051Z,97709.64
2018-10-01T12:20:49.634Z,97701.16
2018-10-01T12:23:18.250Z,97699.41
2018-10-01T12:25:46.994Z,97700.20
2018-10-01T12:28:15.921Z,97699.57
2018-10-01T12:30:44.573Z,97703.39
2018-10-01T12:33:13.254Z,97696.69
2018-10-01T12:35:41.828Z,97700.77
2018-10-01T12:38:10.462Z,97703.27
2018-10-01T12:40:39.126Z,97700.33
2018-10-01T12:43:07.812Z,97694.64
2018-10-01T12:45:36.412Z,97702.47
2018-10-01T12:48:05.048Z,97705.41
2018-10-01T12:50:34.823Z,97710.47
2018-10-01T12:53:03.461Z,97703.16
2018-10-01T12:55:32.097Z,97711.88
2018-10-01T12:58:00.715Z,97717.39
2018-10-01T13:00:29.784Z,97720.16
2018-10-01T13:02:58.405Z,97720.91
2018-10-01T13:05:27.019Z,97727.38
2018-10-01T13:07:55.593Z,97726.08
2018-10-01T13:10:24.165Z,97723.96
2018-10-01T13:13:08.776Z,97722.35
2018-10-01T13:15:51.167Z,97722.11
2018-10-01T13:18:32.938Z,97730.70
2018-10-01T13:21:08.544Z,97731.55
2018-10-01T13:23:45.938Z,97734.94
2018-10-01T13:26:15.223Z,97723.89
2018-10-01T13:28:44.004Z,97738.70
2018-10-01T13:31:12.650Z,97732.53
2018-10-01T13:33:41.485Z,97737.66
2018-10-01T13:36:14.501Z,97735.30
2018-10-01T13:38:43.508Z,97732.05
2018-10-01T13:41:12.085Z,97736.55
2018-10-01T13:43:46.214Z,97737.15
2018-10-01T13:46:14.840Z,97737.19
2018-10-01T13:48:43.599Z,97738.41
2018-10-01T13:51:12.051Z,97739.48
2018-10-01T13:53:40.649Z,97736.45
2018-10-01T13:56:09.242Z,97740.44
2018-10-01T13:58:37.870Z,97742.67
2018-10-01T14:01:06.488Z,97741.71
2018-10-01T14:03:35.074Z,97746.95
2018-10-01T14:06:03.664Z,97753.91
2018-10-01T14:08:32.272Z,97754.00
2018-10-01T14:11:00.844Z,97759.31
2018-10-01T14:13:29.540Z,97765.52
2018-10-01T14:15:58.008Z,97764.92
2018-10-01T14:18:26.622Z,97755.77
2018-10-01T14:20:55.181Z,97766.98
2018-10-01T14:23:24.273Z,97770.49
2018-10-01T14:25:54.554Z,97761.38
2018-10-01T14:28:23.205Z,97766.84
2018-10-01T14:30:51.800Z,97775.46
2018-10-01T14:33:20.364Z,97785.16
2018-10-01T14:35:48.904Z,97789.73
2018-10-01T14:38:17.611Z,97785.95
2018-10-01T14:40:46.161Z,97791.09
2018-10-01T14:43:14.783Z,97797.27
2018-10-01T14:45:43.387Z,97795.92
2018-10-01T14:48:12.054Z,97798.02
2018-10-01T14:50:40.623Z,97800.11
2018-10-01T14:53:09.169Z,97807.07
2018-10-01T14:55:41.667Z,97804.93
2018-10-01T14:58:10.264Z,97816.17
2018-10-01T15:00:38.991Z,97820.38
2018-10-01T15:10:09.072Z,97833.21
2018-10-01T15:12:37.627Z,97833.98
2018-10-01T15:15:06.724Z,97846.45
2018-10-01T15:17:35.261Z,97855.20
2018-10-01T15:20:03.887Z,97863.11
2018-10-01T15:22:32.435Z,97867.80
2018-10-01T15:25:07.788Z,97875.20
2018-10-01T15:27:36.474Z,97883.94
2018-10-01T15:30:05.963Z,97885.48
2018-10-01T15:32:34.456Z,97875.05
2018-10-01T15:35:03.058Z,97901.69
2018-10-01T15:37:31.728Z,97904.50
2018-10-01T15:40:00.320Z,97909.61
2018-10-01T15:42:28.876Z,97916.73
2018-10-01T15:44:57.505Z,97918.73
2018-10-01T15:47:26.047Z,97933.94
2018-10-01T15:49:54.709Z,97931.97
2018-10-01T15:52:23.244Z,97941.00
2018-10-01T15:54:51.824Z,97949.80
2018-10-01T15:57:20.470Z,97954.05
2018-10-01T15:59:49.092Z,97956.01
2018-10-01T16:02:17.636Z,97961.83
2018-10-01T16:04:46.212Z,97972.05
2018-10-01T16:07:14.782Z,97962.15
2018-10-01T16:09:43.356Z,97977.53
2018-10-01T16:12:11.904Z,97988.42
2018-10-01T16:14:40.517Z,97981.50
2018-10-01T16:17:09.075Z,97991.22
2018-10-01T16:19:37.616Z,97990.77
2018-10-01T16:24:40.090Z,97988.31
2018-10-01T16:27:08.670Z,97989.13
2018-10-01T16:29:37.292Z,97994.00
2018-10-01T16:32:05.939Z,98001.19
2018-10-01T16:34:34.476Z,97996.84
2018-10-01T16:37:03.057Z,98001.14
2018-10-01T16:39:31.617Z,98010.56
2018-10-01T16:42:00.201Z,98012.70
2018-10-01T16:44:28.849Z,98012.25
2018-10-01T16:46:57.433Z,98018.73
2018-10-01T16:49:26.098Z,98022.23
2018-10-01T16:51:54.584Z,98031.23
2018-10-01T16:54:23.185Z,98031.91
2018-10-01T16:56:51.800Z,98045.53
2018-10-01T16:59:20.426Z,98045.67
2018-10-01T17:01:49.001Z,98048.39
2018-10-01T17:04:17.547Z,98054.16
2018-10-01T17:06:46.268Z,98060.11
2018-10-01T17:09:14.961Z,98073.09
2018-10-01T17:11:43.580Z,98070.99
2018-10-01T17:14:12.223Z,98077.91
2018-10-01T17:16:40.884Z,98081.78
2018-10-01T17:19:10.245Z,98074.96
2018-10-01T17:21:39.547Z,98078.35
2018-10-01T17:24:08.145Z,98083.00
2018-10-01T17:26:36.754Z,98084.92
2018-10-01T17:29:05.373Z,98086.85
2018-10-01T17:31:33.991Z,98089.91
2018-10-01T17:34:02.541Z,98089.80
2018-10-01T17:36:31.142Z,98089.92
2018-10-01T17:38:59.769Z,98097.08
2018-10-01T17:41:29.405Z,98096.30
2018-10-01T17:43:58.012Z,98092.45
2018-10-01T17:46:27.115Z,98088.53
2018-10-01T17:48:55.693Z,98095.13
2018-10-01T17:51:24.462Z,98101.63
2018-10-01T17:53:53.044Z,98107.25
2018-10-01T17:56:21.630Z,98107.59
2018-10-01T17:58:50.340Z,98103.86
2018-10-01T18:01:18.947Z,98111.02
2018-10-01T18:03:47.523Z,98112.84
2018-10-01T18:06:16.160Z,98120.44
2018-10-01T18:08:44.736Z,98117.05
2018-10-01T18:11:13.281Z,98119.95
2018-10-01T18:13:41.876Z,98114.84
2018-10-01T18:16:10.456Z,98125.05
2018-10-01T18:18:39.035Z,98126.90
2018-10-01T18:21:07.668Z,98126.34
2018-10-01T18:23:36.266Z,98129.97
2018-10-01T18:26:04.842Z,98128.31
2018-10-01T18:28:33.450Z,98131.14
2018-10-01T18:31:01.997Z,98131.00
2018-10-01T18:33:30.629Z,98130.23
2018-10-01T18:35:59.292Z,98133.87
2018-10-01T18:38:27.764Z,98135.80
2018-10-01T18:40:56.316Z,98135.38
2018-10-01T18:43:24.877Z,98138.45
2018-10-01T18:45:53.526Z,98145.34
2018-10-01T18:48:22.178Z,98144.03
2018-10-01T18:50:50.788Z,98146.23
2018-10-01T18:53:19.395Z,98147.94
2018-10-01T18:55:47.948Z,98149.05
2018-10-01T18:58:16.516Z,98156.70
2018-10-01T19:00:45.979Z,98161.92
2018-10-01T19:03:14.605Z,98155.48
2018-10-01T19:05:43.158Z,98157.55
2018-10-01T19:08:11.777Z,98153.18
2018-10-01T19:10:40.380Z,98154.59
2018-10-01T19:13:08.970Z,98160.53
2018-10-01T19:15:37.525Z,98163.03
2018-10-01T19:18:06.296Z,98159.41
2018-10-01T19:20:34.820Z,98159.13
2018-10-01T19:23:03.412Z,98163.72
2018-10-01T19:25:32.105Z,98173.26
2018-10-01T19:28:00.760Z,98170.59
2018-10-01T19:30:29.932Z,98174.82
2018-10-01T19:32:58.513Z,98177.57
2018-10-01T19:35:27.111Z,98179.92
2018-10-01T19:37:56.629Z,98173.22
2018-10-01T19:40:26.021Z,98181.50
2018-10-01T19:42:54.889Z,98182.16
2018-10-01T19:45:23.526Z,98183.79
2018-10-01T19:47:52.065Z,98183.42
2018-10-01T19:50:20.625Z,98192.60
2018-10-01T19:52:49.266Z,98190.69
2018-10-01T19:55:17.853Z,98198.33
2018-10-01T19:57:46.466Z,98212.25
2018-10-01T20:00:15.146Z,98208.01
2018-10-01T20:02:43.692Z,98203.86
2018-10-01T20:05:12.391Z,98208.59
2018-10-01T20:07:40.986Z,98210.83
2018-10-01T20:10:09.635Z,98205.84
2018-10-01T20:12:38.157Z,98207.78
2018-10-01T20:15:07.322Z,98209.83
2018-10-01T20:17:35.916Z,98207.97
2018-10-01T20:20:04.905Z,98209.98
2018-10-01T20:22:33.506Z,98204.44
2018-10-01T20:25:02.121Z,98205.45
2018-10-01T20:27:30.736Z,98214.95
2018-10-01T20:29:59.413Z,98219.16
2018-10-01T20:32:28.103Z,98220.11
2018-10-01T20:34:56.764Z,98222.91
2018-10-01T20:37:25.281Z,98218.59
2018-10-01T20:39:53.920Z,98220.31
2018-10-01T20:42:22.590Z,98224.87
2018-10-01T20:44:51.209Z,98219.93
2018-10-01T20:47:19.856Z,98224.75
2018-10-01T20:49:48.450Z,98223.45
2018-10-01T20:52:17.060Z,98223.63
2018-10-01T20:54:45.624Z,98220.97
2018-10-01T20:57:14.175Z,98217.13
2018-10-01T20:59:42.961Z,98219.52
2018-10-01T21:02:11.567Z,98223.80
2018-10-01T21:04:40.239Z,98219.80
2018-10-01T21:07:08.857Z,98215.01
2018-10-01T21:09:37.436Z,98219.55
2018-10-01T21:12:06.313Z,98224.48
2018-10-01T21:14:34.960Z,98224.66
2018-10-01T21:17:03.539Z,98228.94
2018-10-01T21:19:32.116Z,98234.31
2018-10-01T21:22:00.677Z,98236.66
2018-10-01T21:24:29.281Z,98246.16
2018-10-01T21:27:00.334Z,98246.66
2018-10-01T21:29:28.882Z,98240.32
2018-10-01T21:31:57.510Z,98250.44
2018-10-01T21:34:26.340Z,98248.52
2018-10-01T21:36:55.436Z,98248.09
2018-10-01T21:39:40.473Z,98255.13
2018-10-01T21:42:09.160Z,98257.96
2018-10-01T21:44:37.735Z,98259.41
2018-10-01T21:47:06.344Z,98268.21
2018-10-01T21:49:34.923Z,98270.89
2018-10-01T21:52:03.544Z,98271.55
2018-10-01T21:54:32.384Z,98270.43
2018-10-01T21:57:01.018Z,98267.81
2018-10-01T21:59:30.607Z,98266.10
2018-10-01T22:02:00.240Z,98269.77
2018-10-01T22:04:28.833Z,98266.94
2018-10-01T22:06:57.414Z,98265.17
2018-10-01T22:09:26.045Z,98270.70
2018-10-01T22:11:55.497Z,98269.39
2018-10-01T22:14:25.310Z,98272.59
2018-10-01T22:16:53.980Z,98277.59
2018-10-01T22:19:22.749Z,98275.10
2018-10-01T22:21:51.387Z,98286.80
2018-10-01T22:24:20.712Z,98285.86
2018-10-01T22:26:49.333Z,98295.34
2018-10-01T22:29:17.890Z,98291.56
2018-10-01T22:31:46.577Z,98295.13
2018-10-01T22:34:15.134Z,98293.84
2018-10-01T22:36:43.761Z,98295.78
2018-10-01T22:39:12.334Z,98294.23
2018-10-01T22:41:40.917Z,98296.39
2018-10-01T22:44:09.504Z,98291.77
2018-10-01T22:46:38.630Z,98293.55
2018-10-01T22:49:07.413Z,98293.72
2018-10-01T22:51:36.045Z,98294.58
2018-10-01T22:54:04.644Z,98296.20
2018-10-01T22:56:33.338Z,98296.45
2018-10-01T22:59:01.883Z,98300.56
2018-10-01T23:01:30.492Z,98298.25
2018-10-01T23:03:59.047Z,98303.06
2018-10-01T23:06:27.600Z,98292.42
2018-10-01T23:08:56.169Z,98299.95
2018-10-01T23:11:24.704Z,98300.22
2018-10-01T23:13:53.285Z,98308.97
2018-10-01T23:16:21.900Z,98304.05
2018-10-01T23:18:50.477Z,98308.81
2018-10-01T23:21:19.101Z,98307.27
2018-10-01T23:23:47.677Z,98306.69
2018-10-01T23:26:16.230Z,98313.25
2018-10-01T23:28:44.809Z,98325.62
2018-10-01T23:31:13.380Z,98327.82
2018-10-01T23:33:41.955Z,98336.10
2018-10-01T23:36:10.493Z,98339.49
2018-10-01T23:38:39.150Z,98340.42
2018-10-01T23:41:07.700Z,98343.27
2018-10-01T23:43:36.300Z,98339.58
2018-10-01T23:46:04.850Z,98339.50
2018-10-01T23:48:33.443Z,98344.81
2018-10-01T23:51:02.001Z,98339.59
2018-10-01T23:53:30.566Z,98342.16
2018-10-01T23:55:59.120Z,98342.75
2018-10-01T23:58:27.676Z,98338.47
